sensor_id;sensor_type;location;lat;lon;timestamp;temperature;humidity
13482;DHT22;6813;60.352;15.746;2022-10-31T00:00:22;8.30;99.90
13482;DHT22;6813;60.352;15.746;2022-10-31T00:02:48;8.40;99.90
13482;DHT22;6813;60.352;15.746;2022-10-31T00:05:14;8.40;99.90
13482;DHT22;6813;60.352;15.746;2022-10-31T00:07:40;8.30;99.90
13482;DHT22;6813;60.352;15.746;2022-10-31T00:10:06;8.20;99.90
13482;DHT22;6813;60.352;15.746;2022-10-31T00:12:32;8.20;99.90
13482;DHT22;6813;60.352;15.746;2022-10-31T00:14:57;8.30;99.90
13482;DHT22;6813;60.352;15.746;2022-10-31T00:17:23;8.40;99.90
13482;DHT22;6813;60.352;15.746;2022-10-31T00:19:49;8.60;99.90
13482;DHT22;6813;60.352;15.746;2022-10-31T00:22:15;8.70;99.90
13482;DHT22;6813;60.352;15.746;2022-10-31T00:24:40;8.90;99.90
13482;DHT22;6813;60.352;15.746;2022-10-31T00:27:06;9.00;99.90
13482;DHT22;6813;60.352;15.746;2022-10-31T00:29:32;9.20;99.90
13482;DHT22;6813;60.352;15.746;2022-10-31T00:31:59;9.40;99.90
13482;DHT22;6813;60.352;15.746;2022-10-31T00:34:24;9.40;99.90
13482;DHT22;6813;60.352;15.746;2022-10-31T00:36:50;9.30;99.90
13482;DHT22;6813;60.352;15.746;2022-10-31T00:39:17;9.30;99.90
13482;DHT22;6813;60.352;15.746;2022-10-31T00:41:43;9.20;99.90
13482;DHT22;6813;60.352;15.746;2022-10-31T00:44:09;9.10;99.90
13482;DHT22;6813;60.352;15.746;2022-10-31T00:46:34;9.10;99.90
13482;DHT22;6813;60.352;15.746;2022-10-31T00:49:00;9.20;99.90
13482;DHT22;6813;60.352;15.746;2022-10-31T00:51:26;9.30;99.90
13482;DHT22;6813;60.352;15.746;2022-10-31T00:53:52;9.30;99.90
13482;DHT22;6813;60.352;15.746;2022-10-31T00:56:17;9.20;99.90
13482;DHT22;6813;60.352;15.746;2022-10-31T00:58:43;9.20;99.90
13482;DHT22;6813;60.352;15.746;2022-10-31T01:01:10;9.20;99.90
13482;DHT22;6813;60.352;15.746;2022-10-31T01:03:36;9.20;99.90
13482;DHT22;6813;60.352;15.746;2022-10-31T01:06:09;9.10;99.90
13482;DHT22;6813;60.352;15.746;2022-10-31T01:08:36;9.00;99.90
13482;DHT22;6813;60.352;15.746;2022-10-31T01:11:14;9.10;99.90
13482;DHT22;6813;60.352;15.746;2022-10-31T01:13:41;9.10;99.90
13482;DHT22;6813;60.352;15.746;2022-10-31T01:16:09;9.10;99.90
13482;DHT22;6813;60.352;15.746;2022-10-31T01:18:35;9.10;99.90
13482;DHT22;6813;60.352;15.746;2022-10-31T01:21:22;9.10;99.90
13482;DHT22;6813;60.352;15.746;2022-10-31T01:23:49;8.90;99.90
13482;DHT22;6813;60.352;15.746;2022-10-31T01:26:18;8.90;99.90
13482;DHT22;6813;60.352;15.746;2022-10-31T01:31:15;8.80;99.90
13482;DHT22;6813;60.352;15.746;2022-10-31T01:33:41;8.90;99.90
13482;DHT22;6813;60.352;15.746;2022-10-31T01:36:17;8.90;99.90
13482;DHT22;6813;60.352;15.746;2022-10-31T01:38:43;9.10;99.90
13482;DHT22;6813;60.352;15.746;2022-10-31T01:41:11;9.10;99.90
13482;DHT22;6813;60.352;15.746;2022-10-31T01:46:21;9.00;99.90
13482;DHT22;6813;60.352;15.746;2022-10-31T01:48:48;9.00;99.90
13482;DHT22;6813;60.352;15.746;2022-10-31T01:51:15;9.10;99.90
13482;DHT22;6813;60.352;15.746;2022-10-31T01:53:43;9.00;99.90
13482;DHT22;6813;60.352;15.746;2022-10-31T01:56:10;9.00;99.90
13482;DHT22;6813;60.352;15.746;2022-10-31T01:58:37;9.00;99.90
13482;DHT22;6813;60.352;15.746;2022-10-31T02:01:04;9.10;99.90
13482;DHT22;6813;60.352;15.746;2022-10-31T02:03:31;9.30;99.90
13482;DHT22;6813;60.352;15.746;2022-10-31T02:05:57;9.40;99.90
13482;DHT22;6813;60.352;15.746;2022-10-31T02:08:29;9.50;99.90
13482;DHT22;6813;60.352;15.746;2022-10-31T02:10:57;9.60;99.90
13482;DHT22;6813;60.352;15.746;2022-10-31T02:13:24;9.70;99.90
13482;DHT22;6813;60.352;15.746;2022-10-31T02:15:53;9.90;99.90
13482;DHT22;6813;60.352;15.746;2022-10-31T02:18:20;9.90;99.90
13482;DHT22;6813;60.352;15.746;2022-10-31T02:26:24;10.00;99.90
13482;DHT22;6813;60.352;15.746;2022-10-31T02:29:16;10.00;99.90
13482;DHT22;6813;60.352;15.746;2022-10-31T02:34:34;10.10;99.90
13482;DHT22;6813;60.352;15.746;2022-10-31T02:37:14;10.20;99.90
13482;DHT22;6813;60.352;15.746;2022-10-31T02:40:02;10.30;99.90
13482;DHT22;6813;60.352;15.746;2022-10-31T02:42:41;10.20;99.90
13482;DHT22;6813;60.352;15.746;2022-10-31T02:45:38;10.20;99.90
13482;DHT22;6813;60.352;15.746;2022-10-31T02:48:10;10.30;99.90
13482;DHT22;6813;60.352;15.746;2022-10-31T02:50:41;10.30;99.90
13482;DHT22;6813;60.352;15.746;2022-10-31T02:53:08;10.30;99.90
13482;DHT22;6813;60.352;15.746;2022-10-31T02:58:09;10.30;99.90
13482;DHT22;6813;60.352;15.746;2022-10-31T03:00:50;10.40;99.90
13482;DHT22;6813;60.352;15.746;2022-10-31T03:06:17;10.50;99.90
13482;DHT22;6813;60.352;15.746;2022-10-31T03:08:55;10.40;99.90
13482;DHT22;6813;60.352;15.746;2022-10-31T03:11:26;10.30;99.90
13482;DHT22;6813;60.352;15.746;2022-10-31T03:14:04;10.30;99.90
13482;DHT22;6813;60.352;15.746;2022-10-31T03:19:24;10.00;99.90
13482;DHT22;6813;60.352;15.746;2022-10-31T03:21:57;10.10;99.90
13482;DHT22;6813;60.352;15.746;2022-10-31T03:24:29;10.00;99.90
13482;DHT22;6813;60.352;15.746;2022-10-31T03:26:58;9.70;99.90
13482;DHT22;6813;60.352;15.746;2022-10-31T03:29:30;9.60;99.90
13482;DHT22;6813;60.352;15.746;2022-10-31T03:32:01;9.50;99.90
13482;DHT22;6813;60.352;15.746;2022-10-31T03:34:30;9.70;99.90
13482;DHT22;6813;60.352;15.746;2022-10-31T03:37:00;9.90;99.90
13482;DHT22;6813;60.352;15.746;2022-10-31T03:39:28;10.10;99.90
13482;DHT22;6813;60.352;15.746;2022-10-31T03:41:57;10.20;99.90
13482;DHT22;6813;60.352;15.746;2022-10-31T03:44:26;10.20;99.90
13482;DHT22;6813;60.352;15.746;2022-10-31T03:46:52;9.90;99.90
13482;DHT22;6813;60.352;15.746;2022-10-31T03:49:18;9.90;99.90
13482;DHT22;6813;60.352;15.746;2022-10-31T03:51:57;9.70;99.90
13482;DHT22;6813;60.352;15.746;2022-10-31T03:57:21;10.00;99.90
13482;DHT22;6813;60.352;15.746;2022-10-31T03:59:49;10.00;99.90
13482;DHT22;6813;60.352;15.746;2022-10-31T04:02:20;10.10;99.90
13482;DHT22;6813;60.352;15.746;2022-10-31T04:04:48;10.20;99.90
13482;DHT22;6813;60.352;15.746;2022-10-31T04:07:15;10.30;99.90
13482;DHT22;6813;60.352;15.746;2022-10-31T04:09:43;10.20;99.90
13482;DHT22;6813;60.352;15.746;2022-10-31T04:12:12;9.90;99.90
13482;DHT22;6813;60.352;15.746;2022-10-31T04:14:42;9.70;99.90
13482;DHT22;6813;60.352;15.746;2022-10-31T04:17:12;9.60;99.90
13482;DHT22;6813;60.352;15.746;2022-10-31T04:19:40;9.50;99.90
13482;DHT22;6813;60.352;15.746;2022-10-31T04:22:06;9.50;99.90
13482;DHT22;6813;60.352;15.746;2022-10-31T04:24:31;9.60;99.90
13482;DHT22;6813;60.352;15.746;2022-10-31T04:26:57;9.70;99.90
13482;DHT22;6813;60.352;15.746;2022-10-31T04:29:23;9.60;99.90
13482;DHT22;6813;60.352;15.746;2022-10-31T04:31:48;9.50;99.90
13482;DHT22;6813;60.352;15.746;2022-10-31T04:34:14;9.40;99.90
13482;DHT22;6813;60.352;15.746;2022-10-31T04:36:40;9.40;99.90
13482;DHT22;6813;60.352;15.746;2022-10-31T04:39:05;9.60;99.90
13482;DHT22;6813;60.352;15.746;2022-10-31T04:41:31;9.80;99.90
13482;DHT22;6813;60.352;15.746;2022-10-31T04:43:57;10.00;99.90
13482;DHT22;6813;60.352;15.746;2022-10-31T04:46:22;10.20;99.90
13482;DHT22;6813;60.352;15.746;2022-10-31T04:48:48;10.40;99.90
13482;DHT22;6813;60.352;15.746;2022-10-31T04:51:14;10.50;99.90
13482;DHT22;6813;60.352;15.746;2022-10-31T04:53:39;10.50;99.90
13482;DHT22;6813;60.352;15.746;2022-10-31T04:56:05;10.60;99.90
13482;DHT22;6813;60.352;15.746;2022-10-31T04:58:31;10.60;99.90
13482;DHT22;6813;60.352;15.746;2022-10-31T05:00:57;10.60;99.90
13482;DHT22;6813;60.352;15.746;2022-10-31T05:03:23;10.60;99.90
13482;DHT22;6813;60.352;15.746;2022-10-31T05:05:50;10.50;99.90
13482;DHT22;6813;60.352;15.746;2022-10-31T05:08:16;10.60;99.90
13482;DHT22;6813;60.352;15.746;2022-10-31T05:10:41;10.50;99.90
13482;DHT22;6813;60.352;15.746;2022-10-31T05:13:07;10.40;99.90
13482;DHT22;6813;60.352;15.746;2022-10-31T05:15:33;10.10;99.90
13482;DHT22;6813;60.352;15.746;2022-10-31T05:17:59;10.00;99.90
13482;DHT22;6813;60.352;15.746;2022-10-31T05:20:27;10.10;99.90
13482;DHT22;6813;60.352;15.746;2022-10-31T05:22:55;10.30;99.90
13482;DHT22;6813;60.352;15.746;2022-10-31T05:25:23;10.40;99.90
13482;DHT22;6813;60.352;15.746;2022-10-31T05:27:50;10.50;99.90
13482;DHT22;6813;60.352;15.746;2022-10-31T05:30:19;10.60;99.90
13482;DHT22;6813;60.352;15.746;2022-10-31T05:32:47;10.70;99.90
13482;DHT22;6813;60.352;15.746;2022-10-31T05:35:16;10.70;99.90
13482;DHT22;6813;60.352;15.746;2022-10-31T05:37:42;10.70;99.90
13482;DHT22;6813;60.352;15.746;2022-10-31T05:40:10;10.50;99.90
13482;DHT22;6813;60.352;15.746;2022-10-31T05:42:37;10.40;99.90
13482;DHT22;6813;60.352;15.746;2022-10-31T05:45:03;10.40;99.90
13482;DHT22;6813;60.352;15.746;2022-10-31T05:47:29;10.50;99.90
13482;DHT22;6813;60.352;15.746;2022-10-31T05:49:56;10.60;99.90
13482;DHT22;6813;60.352;15.746;2022-10-31T05:52:24;10.50;99.90
13482;DHT22;6813;60.352;15.746;2022-10-31T05:54:50;10.20;99.90
13482;DHT22;6813;60.352;15.746;2022-10-31T05:57:15;10.00;99.90
13482;DHT22;6813;60.352;15.746;2022-10-31T05:59:41;9.80;99.90
13482;DHT22;6813;60.352;15.746;2022-10-31T06:02:08;9.70;99.90
13482;DHT22;6813;60.352;15.746;2022-10-31T06:04:33;9.60;99.90
13482;DHT22;6813;60.352;15.746;2022-10-31T06:06:59;9.60;99.90
13482;DHT22;6813;60.352;15.746;2022-10-31T06:09:25;9.60;99.90
13482;DHT22;6813;60.352;15.746;2022-10-31T06:11:51;9.70;99.90
13482;DHT22;6813;60.352;15.746;2022-10-31T06:14:17;9.90;99.90
13482;DHT22;6813;60.352;15.746;2022-10-31T06:16:43;10.10;99.90
13482;DHT22;6813;60.352;15.746;2022-10-31T06:19:08;10.00;99.90
13482;DHT22;6813;60.352;15.746;2022-10-31T06:21:36;10.00;99.90
13482;DHT22;6813;60.352;15.746;2022-10-31T06:24:01;9.80;99.90
13482;DHT22;6813;60.352;15.746;2022-10-31T06:26:27;9.80;99.90
13482;DHT22;6813;60.352;15.746;2022-10-31T06:28:53;9.80;99.90
13482;DHT22;6813;60.352;15.746;2022-10-31T06:31:19;9.80;99.90
13482;DHT22;6813;60.352;15.746;2022-10-31T06:33:45;9.80;99.90
13482;DHT22;6813;60.352;15.746;2022-10-31T06:36:10;9.90;99.90
13482;DHT22;6813;60.352;15.746;2022-10-31T06:38:36;10.10;99.90
13482;DHT22;6813;60.352;15.746;2022-10-31T06:41:03;10.20;99.90
13482;DHT22;6813;60.352;15.746;2022-10-31T06:43:29;10.40;99.90
13482;DHT22;6813;60.352;15.746;2022-10-31T06:46:02;10.30;99.90
13482;DHT22;6813;60.352;15.746;2022-10-31T06:48:30;10.20;99.90
13482;DHT22;6813;60.352;15.746;2022-10-31T06:50:59;10.20;99.90
13482;DHT22;6813;60.352;15.746;2022-10-31T06:53:26;10.20;99.90
13482;DHT22;6813;60.352;15.746;2022-10-31T06:55:52;10.20;99.90
13482;DHT22;6813;60.352;15.746;2022-10-31T06:58:19;10.20;99.90
13482;DHT22;6813;60.352;15.746;2022-10-31T07:00:45;10.20;99.90
13482;DHT22;6813;60.352;15.746;2022-10-31T07:03:12;10.10;99.90
13482;DHT22;6813;60.352;15.746;2022-10-31T07:05:38;10.10;99.90
13482;DHT22;6813;60.352;15.746;2022-10-31T07:08:07;10.00;99.90
13482;DHT22;6813;60.352;15.746;2022-10-31T07:10:35;10.10;99.90
13482;DHT22;6813;60.352;15.746;2022-10-31T07:13:03;10.20;99.90
13482;DHT22;6813;60.352;15.746;2022-10-31T07:15:32;10.10;99.90
13482;DHT22;6813;60.352;15.746;2022-10-31T07:18:07;10.10;99.90
13482;DHT22;6813;60.352;15.746;2022-10-31T07:20:33;10.20;99.90
13482;DHT22;6813;60.352;15.746;2022-10-31T07:22:59;10.40;99.90
13482;DHT22;6813;60.352;15.746;2022-10-31T07:25:26;10.50;99.90
13482;DHT22;6813;60.352;15.746;2022-10-31T07:27:52;10.40;99.90
13482;DHT22;6813;60.352;15.746;2022-10-31T07:30:18;10.50;99.90
13482;DHT22;6813;60.352;15.746;2022-10-31T07:32:46;10.70;99.90
13482;DHT22;6813;60.352;15.746;2022-10-31T07:35:14;10.90;99.90
13482;DHT22;6813;60.352;15.746;2022-10-31T07:37:40;11.00;99.90
13482;DHT22;6813;60.352;15.746;2022-10-31T07:40:07;11.20;99.90
13482;DHT22;6813;60.352;15.746;2022-10-31T07:42:40;11.30;99.90
13482;DHT22;6813;60.352;15.746;2022-10-31T07:45:08;11.30;99.90
13482;DHT22;6813;60.352;15.746;2022-10-31T07:47:39;11.40;99.90
13482;DHT22;6813;60.352;15.746;2022-10-31T07:50:05;11.40;99.90
13482;DHT22;6813;60.352;15.746;2022-10-31T07:52:31;11.50;99.90
13482;DHT22;6813;60.352;15.746;2022-10-31T07:54:57;11.50;99.90
13482;DHT22;6813;60.352;15.746;2022-10-31T07:57:23;11.40;99.90
13482;DHT22;6813;60.352;15.746;2022-10-31T07:59:49;11.20;99.90
13482;DHT22;6813;60.352;15.746;2022-10-31T08:02:14;11.00;99.90
13482;DHT22;6813;60.352;15.746;2022-10-31T08:04:40;10.90;99.90
13482;DHT22;6813;60.352;15.746;2022-10-31T08:07:06;10.90;99.90
13482;DHT22;6813;60.352;15.746;2022-10-31T08:09:32;10.90;99.90
13482;DHT22;6813;60.352;15.746;2022-10-31T08:11:57;10.80;99.90
13482;DHT22;6813;60.352;15.746;2022-10-31T08:14:23;10.80;99.90
13482;DHT22;6813;60.352;15.746;2022-10-31T08:16:49;10.80;99.90
13482;DHT22;6813;60.352;15.746;2022-10-31T08:19:14;10.90;99.90
13482;DHT22;6813;60.352;15.746;2022-10-31T08:21:40;11.10;99.90
13482;DHT22;6813;60.352;15.746;2022-10-31T08:24:06;11.20;99.90
13482;DHT22;6813;60.352;15.746;2022-10-31T08:26:32;11.30;99.90
13482;DHT22;6813;60.352;15.746;2022-10-31T08:28:58;11.40;99.90
13482;DHT22;6813;60.352;15.746;2022-10-31T08:31:24;11.60;99.90
13482;DHT22;6813;60.352;15.746;2022-10-31T08:33:52;11.70;99.90
13482;DHT22;6813;60.352;15.746;2022-10-31T08:36:19;11.80;99.90
13482;DHT22;6813;60.352;15.746;2022-10-31T08:38:46;11.90;99.90
13482;DHT22;6813;60.352;15.746;2022-10-31T08:41:12;12.00;99.90
13482;DHT22;6813;60.352;15.746;2022-10-31T08:43:38;12.10;99.90
13482;DHT22;6813;60.352;15.746;2022-10-31T08:46:04;12.20;99.90
13482;DHT22;6813;60.352;15.746;2022-10-31T08:48:30;12.30;99.90
13482;DHT22;6813;60.352;15.746;2022-10-31T08:50:58;12.30;99.90
13482;DHT22;6813;60.352;15.746;2022-10-31T08:53:24;12.30;99.90
13482;DHT22;6813;60.352;15.746;2022-10-31T08:55:51;12.10;99.90
13482;DHT22;6813;60.352;15.746;2022-10-31T08:58:20;12.00;99.90
13482;DHT22;6813;60.352;15.746;2022-10-31T09:00:51;12.00;99.90
13482;DHT22;6813;60.352;15.746;2022-10-31T09:03:23;12.00;99.90
13482;DHT22;6813;60.352;15.746;2022-10-31T09:05:49;12.00;99.90
13482;DHT22;6813;60.352;15.746;2022-10-31T09:08:15;12.10;99.90
13482;DHT22;6813;60.352;15.746;2022-10-31T09:10:42;12.20;99.90
13482;DHT22;6813;60.352;15.746;2022-10-31T09:13:11;12.20;99.90
13482;DHT22;6813;60.352;15.746;2022-10-31T09:15:40;12.20;99.90
13482;DHT22;6813;60.352;15.746;2022-10-31T09:18:07;12.30;99.90
13482;DHT22;6813;60.352;15.746;2022-10-31T09:20:35;12.40;99.90
13482;DHT22;6813;60.352;15.746;2022-10-31T09:23:04;12.50;99.90
13482;DHT22;6813;60.352;15.746;2022-10-31T09:25:30;12.50;99.90
13482;DHT22;6813;60.352;15.746;2022-10-31T09:27:57;12.30;99.90
13482;DHT22;6813;60.352;15.746;2022-10-31T09:30:23;12.40;99.90
13482;DHT22;6813;60.352;15.746;2022-10-31T09:32:55;12.50;99.90
13482;DHT22;6813;60.352;15.746;2022-10-31T09:35:22;12.70;99.90
13482;DHT22;6813;60.352;15.746;2022-10-31T09:37:54;12.80;99.90
13482;DHT22;6813;60.352;15.746;2022-10-31T09:40:21;12.90;99.90
13482;DHT22;6813;60.352;15.746;2022-10-31T09:42:59;13.00;99.90
13482;DHT22;6813;60.352;15.746;2022-10-31T09:45:39;13.00;99.90
13482;DHT22;6813;60.352;15.746;2022-10-31T09:48:42;13.10;99.90
13482;DHT22;6813;60.352;15.746;2022-10-31T09:51:31;13.10;99.90
13482;DHT22;6813;60.352;15.746;2022-10-31T09:54:04;13.20;99.90
13482;DHT22;6813;60.352;15.746;2022-10-31T09:56:32;13.30;99.90
13482;DHT22;6813;60.352;15.746;2022-10-31T09:59:04;13.40;99.90
13482;DHT22;6813;60.352;15.746;2022-10-31T10:01:44;13.40;99.90
13482;DHT22;6813;60.352;15.746;2022-10-31T10:04:37;13.50;99.90
13482;DHT22;6813;60.352;15.746;2022-10-31T10:07:16;13.50;99.90
13482;DHT22;6813;60.352;15.746;2022-10-31T10:09:44;13.50;99.90
13482;DHT22;6813;60.352;15.746;2022-10-31T10:32:22;13.60;99.90
13482;DHT22;6813;60.352;15.746;2022-10-31T10:34:55;13.60;99.90
13482;DHT22;6813;60.352;15.746;2022-10-31T10:37:37;13.50;99.90
13482;DHT22;6813;60.352;15.746;2022-10-31T10:40:20;13.50;99.90
13482;DHT22;6813;60.352;15.746;2022-10-31T10:51:27;13.90;99.90
13482;DHT22;6813;60.352;15.746;2022-10-31T10:54:20;14.10;99.90
13482;DHT22;6813;60.352;15.746;2022-10-31T10:59:19;14.30;99.90
13482;DHT22;6813;60.352;15.746;2022-10-31T11:01:45;14.40;99.90
13482;DHT22;6813;60.352;15.746;2022-10-31T11:04:34;14.50;99.90
13482;DHT22;6813;60.352;15.746;2022-10-31T11:07:09;14.50;99.90
13482;DHT22;6813;60.352;15.746;2022-10-31T11:09:36;14.60;99.90
13482;DHT22;6813;60.352;15.746;2022-10-31T11:12:17;14.70;99.90
13482;DHT22;6813;60.352;15.746;2022-10-31T11:15:00;14.60;99.90
13482;DHT22;6813;60.352;15.746;2022-10-31T11:17:38;14.70;99.90
13482;DHT22;6813;60.352;15.746;2022-10-31T11:22:38;14.60;99.90
13482;DHT22;6813;60.352;15.746;2022-10-31T11:27:45;14.60;99.90
13482;DHT22;6813;60.352;15.746;2022-10-31T11:30:13;14.50;99.90
13482;DHT22;6813;60.352;15.746;2022-10-31T11:32:58;14.50;99.90
13482;DHT22;6813;60.352;15.746;2022-10-31T11:35:24;14.60;99.90
13482;DHT22;6813;60.352;15.746;2022-10-31T11:37:52;14.60;99.90
13482;DHT22;6813;60.352;15.746;2022-10-31T11:40:22;14.60;99.90
13482;DHT22;6813;60.352;15.746;2022-10-31T11:42:49;14.50;99.90
13482;DHT22;6813;60.352;15.746;2022-10-31T11:48:19;14.40;99.90
13482;DHT22;6813;60.352;15.746;2022-10-31T11:50:53;14.30;99.90
13482;DHT22;6813;60.352;15.746;2022-10-31T11:53:37;14.30;99.90
13482;DHT22;6813;60.352;15.746;2022-10-31T11:56:13;14.40;99.90
13482;DHT22;6813;60.352;15.746;2022-10-31T11:58:39;14.30;99.90
13482;DHT22;6813;60.352;15.746;2022-10-31T12:01:05;14.30;99.90
13482;DHT22;6813;60.352;15.746;2022-10-31T12:03:54;14.30;99.90
13482;DHT22;6813;60.352;15.746;2022-10-31T12:06:30;14.40;99.90
13482;DHT22;6813;60.352;15.746;2022-10-31T12:08:57;14.50;99.90
13482;DHT22;6813;60.352;15.746;2022-10-31T12:22:24;14.60;99.90
13482;DHT22;6813;60.352;15.746;2022-10-31T12:28:06;14.80;99.90
13482;DHT22;6813;60.352;15.746;2022-10-31T12:36:12;14.90;99.90
13482;DHT22;6813;60.352;15.746;2022-10-31T12:38:48;14.80;99.90
13482;DHT22;6813;60.352;15.746;2022-10-31T12:41:31;14.90;99.90
13482;DHT22;6813;60.352;15.746;2022-10-31T12:52:34;14.70;99.90
13482;DHT22;6813;60.352;15.746;2022-10-31T12:57:48;14.60;99.90
13482;DHT22;6813;60.352;15.746;2022-10-31T13:00:18;14.60;99.90
13482;DHT22;6813;60.352;15.746;2022-10-31T13:02:48;14.50;99.90
13482;DHT22;6813;60.352;15.746;2022-10-31T13:08:06;14.40;99.90
13482;DHT22;6813;60.352;15.746;2022-10-31T13:10:54;14.40;99.90
13482;DHT22;6813;60.352;15.746;2022-10-31T13:13:36;14.30;99.90
13482;DHT22;6813;60.352;15.746;2022-10-31T13:16:16;14.30;99.90
13482;DHT22;6813;60.352;15.746;2022-10-31T13:19:01;14.30;99.90
13482;DHT22;6813;60.352;15.746;2022-10-31T13:21:35;14.30;99.90
13482;DHT22;6813;60.352;15.746;2022-10-31T13:24:04;14.20;99.90
13482;DHT22;6813;60.352;15.746;2022-10-31T13:26:50;14.20;99.90
13482;DHT22;6813;60.352;15.746;2022-10-31T13:29:33;14.30;99.90
13482;DHT22;6813;60.352;15.746;2022-10-31T13:32:06;14.40;99.90
13482;DHT22;6813;60.352;15.746;2022-10-31T13:34:42;14.40;99.90
13482;DHT22;6813;60.352;15.746;2022-10-31T13:42:55;14.50;99.90
13482;DHT22;6813;60.352;15.746;2022-10-31T13:45:24;14.70;99.90
13482;DHT22;6813;60.352;15.746;2022-10-31T13:48:46;14.60;99.90
13482;DHT22;6813;60.352;15.746;2022-10-31T13:50:58;14.50;99.90
13482;DHT22;6813;60.352;15.746;2022-10-31T13:53:43;14.40;99.90
13482;DHT22;6813;60.352;15.746;2022-10-31T14:01:26;14.70;99.90
13482;DHT22;6813;60.352;15.746;2022-10-31T14:06:23;14.70;99.90
13482;DHT22;6813;60.352;15.746;2022-10-31T14:09:00;14.70;99.90
13482;DHT22;6813;60.352;15.746;2022-10-31T14:11:27;14.80;99.90
13482;DHT22;6813;60.352;15.746;2022-10-31T14:13:55;14.90;99.90
13482;DHT22;6813;60.352;15.746;2022-10-31T14:16:30;15.00;99.90
13482;DHT22;6813;60.352;15.746;2022-10-31T14:19:06;15.00;99.90
13482;DHT22;6813;60.352;15.746;2022-10-31T14:21:41;15.10;99.90
13482;DHT22;6813;60.352;15.746;2022-10-31T14:26:54;14.90;99.90
13482;DHT22;6813;60.352;15.746;2022-10-31T14:29:26;15.00;99.90
13482;DHT22;6813;60.352;15.746;2022-10-31T14:34:42;14.80;99.90
13482;DHT22;6813;60.352;15.746;2022-10-31T14:40:25;14.80;99.90
13482;DHT22;6813;60.352;15.746;2022-10-31T14:51:02;14.40;99.90
13482;DHT22;6813;60.352;15.746;2022-10-31T14:53:34;14.50;99.90
13482;DHT22;6813;60.352;15.746;2022-10-31T14:56:01;14.60;99.90
13482;DHT22;6813;60.352;15.746;2022-10-31T15:00:58;14.60;99.90
13482;DHT22;6813;60.352;15.746;2022-10-31T15:03:27;14.50;99.90
13482;DHT22;6813;60.352;15.746;2022-10-31T15:05:56;14.40;99.90
13482;DHT22;6813;60.352;15.746;2022-10-31T15:08:50;14.50;99.90
13482;DHT22;6813;60.352;15.746;2022-10-31T15:11:37;14.60;99.90
13482;DHT22;6813;60.352;15.746;2022-10-31T15:14:50;14.60;99.90
13482;DHT22;6813;60.352;15.746;2022-10-31T15:17:11;14.60;99.90
13482;DHT22;6813;60.352;15.746;2022-10-31T15:19:37;14.70;99.90
13482;DHT22;6813;60.352;15.746;2022-10-31T15:22:04;14.70;99.90
13482;DHT22;6813;60.352;15.746;2022-10-31T15:24:36;14.70;99.90
13482;DHT22;6813;60.352;15.746;2022-10-31T15:27:04;14.70;99.90
13482;DHT22;6813;60.352;15.746;2022-10-31T15:29:30;14.70;99.90
13482;DHT22;6813;60.352;15.746;2022-10-31T15:31:57;14.60;99.90
13482;DHT22;6813;60.352;15.746;2022-10-31T15:34:39;14.50;99.90
13482;DHT22;6813;60.352;15.746;2022-10-31T15:37:14;14.50;99.90
13482;DHT22;6813;60.352;15.746;2022-10-31T15:39:41;14.40;99.90
13482;DHT22;6813;60.352;15.746;2022-10-31T15:42:30;14.40;99.90
13482;DHT22;6813;60.352;15.746;2022-10-31T15:45:01;14.40;99.90
13482;DHT22;6813;60.352;15.746;2022-10-31T15:47:30;14.50;99.90
13482;DHT22;6813;60.352;15.746;2022-10-31T15:49:57;14.40;99.90
13482;DHT22;6813;60.352;15.746;2022-10-31T15:52:40;14.40;99.90
13482;DHT22;6813;60.352;15.746;2022-10-31T15:57:40;14.30;99.90
13482;DHT22;6813;60.352;15.746;2022-10-31T16:00:25;14.20;99.90
13482;DHT22;6813;60.352;15.746;2022-10-31T16:03:03;14.10;99.90
13482;DHT22;6813;60.352;15.746;2022-10-31T16:05:38;14.00;99.90
13482;DHT22;6813;60.352;15.746;2022-10-31T16:08:20;14.00;99.90
13482;DHT22;6813;60.352;15.746;2022-10-31T16:10:47;13.50;99.90
13482;DHT22;6813;60.352;15.746;2022-10-31T16:13:13;13.40;99.90
13482;DHT22;6813;60.352;15.746;2022-10-31T16:15:55;13.30;99.90
13482;DHT22;6813;60.352;15.746;2022-10-31T16:18:21;13.30;99.90
13482;DHT22;6813;60.352;15.746;2022-10-31T16:20:51;13.10;99.90
13482;DHT22;6813;60.352;15.746;2022-10-31T16:23:22;13.10;99.90
13482;DHT22;6813;60.352;15.746;2022-10-31T16:25:51;13.00;99.90
13482;DHT22;6813;60.352;15.746;2022-10-31T16:28:20;13.00;99.90
13482;DHT22;6813;60.352;15.746;2022-10-31T16:30:48;12.90;99.90
13482;DHT22;6813;60.352;15.746;2022-10-31T16:35:57;13.00;99.90
13482;DHT22;6813;60.352;15.746;2022-10-31T16:38:23;13.10;99.90
13482;DHT22;6813;60.352;15.746;2022-10-31T16:40:50;13.10;99.90
13482;DHT22;6813;60.352;15.746;2022-10-31T16:43:18;13.00;99.90
13482;DHT22;6813;60.352;15.746;2022-10-31T16:45:49;13.00;99.90
13482;DHT22;6813;60.352;15.746;2022-10-31T16:48:21;12.90;99.90
13482;DHT22;6813;60.352;15.746;2022-10-31T16:50:48;13.00;99.90
13482;DHT22;6813;60.352;15.746;2022-10-31T16:53:15;13.10;99.90
13482;DHT22;6813;60.352;15.746;2022-10-31T16:55:54;13.10;99.90
13482;DHT22;6813;60.352;15.746;2022-10-31T16:58:25;13.20;99.90
13482;DHT22;6813;60.352;15.746;2022-10-31T17:00:51;13.20;99.90
13482;DHT22;6813;60.352;15.746;2022-10-31T17:03:18;13.20;99.90
13482;DHT22;6813;60.352;15.746;2022-10-31T17:05:44;13.10;99.90
13482;DHT22;6813;60.352;15.746;2022-10-31T17:08:10;13.00;99.90
13482;DHT22;6813;60.352;15.746;2022-10-31T17:10:36;12.90;99.90
13482;DHT22;6813;60.352;15.746;2022-10-31T17:13:03;12.80;99.90
13482;DHT22;6813;60.352;15.746;2022-10-31T17:15:40;12.80;99.90
13482;DHT22;6813;60.352;15.746;2022-10-31T17:18:06;12.50;99.90
13482;DHT22;6813;60.352;15.746;2022-10-31T17:20:34;12.50;99.90
13482;DHT22;6813;60.352;15.746;2022-10-31T17:23:03;12.50;99.90
13482;DHT22;6813;60.352;15.746;2022-10-31T17:25:30;12.40;99.90
13482;DHT22;6813;60.352;15.746;2022-10-31T17:28:00;12.50;99.90
13482;DHT22;6813;60.352;15.746;2022-10-31T17:30:25;12.60;99.90
13482;DHT22;6813;60.352;15.746;2022-10-31T17:32:51;12.70;99.90
13482;DHT22;6813;60.352;15.746;2022-10-31T17:35:18;12.70;99.90
13482;DHT22;6813;60.352;15.746;2022-10-31T17:37:46;12.80;99.90
13482;DHT22;6813;60.352;15.746;2022-10-31T17:40:15;12.80;99.90
13482;DHT22;6813;60.352;15.746;2022-10-31T17:42:42;12.70;99.90
13482;DHT22;6813;60.352;15.746;2022-10-31T17:45:14;12.50;99.90
13482;DHT22;6813;60.352;15.746;2022-10-31T17:47:40;12.30;99.90
13482;DHT22;6813;60.352;15.746;2022-10-31T17:50:06;12.20;99.90
13482;DHT22;6813;60.352;15.746;2022-10-31T17:52:32;11.90;99.90
13482;DHT22;6813;60.352;15.746;2022-10-31T17:54:58;11.90;99.90
13482;DHT22;6813;60.352;15.746;2022-10-31T17:57:23;12.10;99.90
13482;DHT22;6813;60.352;15.746;2022-10-31T17:59:55;12.10;99.90
13482;DHT22;6813;60.352;15.746;2022-10-31T18:02:20;12.00;99.90
13482;DHT22;6813;60.352;15.746;2022-10-31T18:04:47;12.20;99.90
13482;DHT22;6813;60.352;15.746;2022-10-31T18:07:16;12.30;99.90